createdAt,value
2018-10-21T00:00:11.056Z,320
2018-10-21T00:00:23.475Z,292
2018-10-21T00:00:36.004Z,306
2018-10-21T00:00:48.411Z,315
2018-10-21T00:01:00.817Z,282
2018-10-21T00:01:13.244Z,295
2018-10-21T00:01:25.720Z,287
2018-10-21T00:01:38.131Z,273
2018-10-21T00:01:50.633Z,311
2018-10-21T00:02:03.015Z,313
2018-10-21T00:02:15.947Z,304
2018-10-21T00:02:29.696Z,304
2018-10-21T00:02:42.312Z,300
2018-10-21T00:02:54.945Z,305
2018-10-21T00:03:08.111Z,313
2018-10-21T00:03:21.480Z,313
2018-10-21T00:03:33.879Z,313
2018-10-21T00:03:46.287Z,313
2018-10-21T00:03:58.695Z,313
2018-10-21T00:04:11.275Z,296
2018-10-21T00:04:23.652Z,296
2018-10-21T00:04:36.058Z,306
2018-10-21T00:04:48.444Z,328
2018-10-21T00:05:00.844Z,311
2018-10-21T00:05:13.267Z,294
2018-10-21T00:05:25.677Z,295
2018-10-21T00:05:38.060Z,295
2018-10-21T00:05:50.439Z,311
2018-10-21T00:06:02.871Z,301
2018-10-21T00:06:15.394Z,297
2018-10-21T00:06:27.786Z,306
2018-10-21T00:06:40.175Z,304
2018-10-21T00:06:52.579Z,304
2018-10-21T00:07:05.007Z,290
2018-10-21T00:07:17.393Z,294
2018-10-21T00:07:29.840Z,309
2018-10-21T00:07:42.384Z,304
2018-10-21T00:07:54.755Z,304
2018-10-21T00:08:07.152Z,320
2018-10-21T00:08:19.663Z,320
2018-10-21T00:08:32.060Z,306
2018-10-21T00:08:44.439Z,310
2018-10-21T00:08:56.952Z,284
2018-10-21T00:09:10.073Z,290
2018-10-21T00:09:23.346Z,291
2018-10-21T00:09:35.765Z,294
2018-10-21T00:09:48.169Z,294
2018-10-21T00:10:00.570Z,294
2018-10-21T00:10:12.970Z,298
2018-10-21T00:10:25.380Z,315
2018-10-21T00:10:37.764Z,316
2018-10-21T00:10:50.217Z,288
2018-10-21T00:11:02.615Z,315
2018-10-21T00:11:15.153Z,315
2018-10-21T00:11:27.532Z,315
2018-10-21T00:11:39.928Z,315
2018-10-21T00:11:52.303Z,315
2018-10-21T00:12:04.783Z,315
2018-10-21T00:12:17.173Z,315
2018-10-21T00:12:29.550Z,315
2018-10-21T00:12:42.112Z,315
2018-10-21T00:12:54.508Z,315
2018-10-21T00:13:07.053Z,315
2018-10-21T00:13:19.449Z,315
2018-10-21T00:13:31.845Z,321
2018-10-21T00:13:44.236Z,321
2018-10-21T00:13:56.618Z,330
2018-10-21T00:14:09.134Z,330
2018-10-21T00:14:21.675Z,300
2018-10-21T00:14:34.106Z,288
2018-10-21T00:14:46.490Z,300
2018-10-21T00:14:59.115Z,300
2018-10-21T00:15:12.885Z,310
2018-10-21T00:15:27.252Z,310
2018-10-21T00:15:43.005Z,311
2018-10-21T00:15:55.742Z,311
2018-10-21T00:16:08.142Z,296
2018-10-21T00:16:20.590Z,321
2018-10-21T00:16:32.984Z,332
2018-10-21T00:16:45.374Z,315
2018-10-21T00:16:57.764Z,317
2018-10-21T00:17:10.142Z,317
2018-10-21T00:17:22.538Z,317
2018-10-21T00:17:34.980Z,317
2018-10-21T00:17:47.515Z,317
2018-10-21T00:17:59.902Z,317
2018-10-21T00:18:12.311Z,317
2018-10-21T00:18:24.696Z,302
2018-10-21T00:18:37.091Z,302
2018-10-21T00:18:49.485Z,324
2018-10-21T00:19:01.890Z,324
2018-10-21T00:19:14.319Z,324
2018-10-21T00:19:26.711Z,315
2018-10-21T00:19:39.107Z,295
2018-10-21T00:19:51.506Z,300
2018-10-21T00:20:03.915Z,300
2018-10-21T00:20:16.376Z,300
2018-10-21T00:20:28.956Z,298
2018-10-21T00:20:41.429Z,297
2018-10-21T00:20:53.931Z,297
2018-10-21T00:21:07.068Z,297
2018-10-21T00:21:20.737Z,312
2018-10-21T00:21:33.141Z,312
2018-10-21T00:21:45.698Z,312
2018-10-21T00:21:58.070Z,312
2018-10-21T00:22:10.564Z,286
2018-10-21T00:22:22.942Z,286
2018-10-21T00:22:35.349Z,307
2018-10-21T00:22:47.835Z,307
2018-10-21T00:23:00.306Z,307
2018-10-21T00:23:12.777Z,306
2018-10-21T00:23:25.219Z,306
2018-10-21T00:23:37.672Z,306
2018-10-21T00:23:50.135Z,306
2018-10-21T00:24:02.528Z,306
2018-10-21T00:24:14.940Z,306
2018-10-21T00:24:27.397Z,306
2018-10-21T00:24:40.019Z,306
2018-10-21T00:24:52.483Z,306
2018-10-21T00:25:04.944Z,306
2018-10-21T00:25:17.328Z,306
2018-10-21T00:25:29.773Z,301
2018-10-21T00:25:42.222Z,302
2018-10-21T00:25:54.834Z,302
2018-10-21T00:26:07.276Z,302
2018-10-21T00:26:19.652Z,294
2018-10-21T00:26:32.074Z,307
2018-10-21T00:26:44.505Z,304
2018-10-21T00:26:57.209Z,288
2018-10-21T00:27:10.662Z,320
2018-10-21T00:27:23.882Z,323
2018-10-21T00:27:36.259Z,303
2018-10-21T00:27:48.642Z,302
2018-10-21T00:28:01.017Z,305
2018-10-21T00:28:13.403Z,293
2018-10-21T00:28:25.777Z,294
2018-10-21T00:28:38.156Z,294
2018-10-21T00:28:50.608Z,293
2018-10-21T00:29:03.063Z,294
2018-10-21T00:29:15.454Z,311
2018-10-21T00:29:27.857Z,311
2018-10-21T00:29:40.310Z,311
2018-10-21T00:29:52.720Z,299
2018-10-21T00:30:05.115Z,298
2018-10-21T00:30:17.491Z,296
2018-10-21T00:30:30.189Z,296
2018-10-21T00:30:42.653Z,296
2018-10-21T00:30:55.056Z,296
2018-10-21T00:31:07.433Z,296
2018-10-21T00:31:19.816Z,296
2018-10-21T00:31:32.188Z,326
2018-10-21T00:31:44.562Z,317
2018-10-21T00:31:57.003Z,285
2018-10-21T00:32:09.441Z,306
2018-10-21T00:32:21.835Z,298
2018-10-21T00:32:34.208Z,300
2018-10-21T00:32:46.619Z,306
2018-10-21T00:32:59.260Z,296
2018-10-21T00:33:12.551Z,296
2018-10-21T00:33:25.680Z,296
2018-10-21T00:33:38.244Z,300
2018-10-21T00:33:50.698Z,296
2018-10-21T00:34:03.240Z,317
2018-10-21T00:34:15.977Z,328
2018-10-21T00:34:28.412Z,301
2018-10-21T00:34:40.990Z,300
2018-10-21T00:34:53.356Z,300
2018-10-21T00:35:05.725Z,311
2018-10-21T00:35:18.102Z,311
2018-10-21T00:35:30.500Z,309
2018-10-21T00:35:42.883Z,311
2018-10-21T00:35:55.288Z,311
2018-10-21T00:36:07.663Z,306
2018-10-21T00:36:20.041Z,306
2018-10-21T00:36:32.524Z,306
2018-10-21T00:36:44.990Z,306
2018-10-21T00:36:57.392Z,298
2018-10-21T00:37:09.817Z,294
2018-10-21T00:37:22.299Z,308
2018-10-21T00:37:34.770Z,308
2018-10-21T00:37:47.225Z,286
2018-10-21T00:37:59.717Z,286
2018-10-21T00:38:12.171Z,300
2018-10-21T00:38:24.620Z,318
2018-10-21T00:38:37.075Z,318
2018-10-21T00:38:49.486Z,318
2018-10-21T00:39:02.310Z,302
2018-10-21T00:39:16.038Z,303
2018-10-21T00:39:28.975Z,315
2018-10-21T00:39:41.383Z,297
2018-10-21T00:39:53.864Z,303
2018-10-21T00:40:06.349Z,310
2018-10-21T00:40:18.772Z,309
2018-10-21T00:40:31.136Z,309
2018-10-21T00:40:43.758Z,309
2018-10-21T00:40:56.161Z,309
2018-10-21T00:41:08.676Z,309
2018-10-21T00:41:21.131Z,309
2018-10-21T00:41:33.498Z,309
2018-10-21T00:41:45.874Z,309
2018-10-21T00:41:58.245Z,309
2018-10-21T00:42:10.636Z,309
2018-10-21T00:42:23.110Z,311
2018-10-21T00:42:35.479Z,311
2018-10-21T00:42:47.976Z,315
2018-10-21T00:43:00.359Z,315
2018-10-21T00:43:12.814Z,315
2018-10-21T00:43:25.289Z,315
2018-10-21T00:43:37.727Z,315
2018-10-21T00:43:50.207Z,299
2018-10-21T00:44:02.702Z,306
2018-10-21T00:44:15.151Z,294
2018-10-21T00:44:27.599Z,298
2018-10-21T00:44:40.054Z,298
2018-10-21T00:44:52.484Z,314
2018-10-21T00:45:05.448Z,314
2018-10-21T00:45:18.827Z,314
2018-10-21T00:45:31.213Z,310
2018-10-21T00:45:43.610Z,324
2018-10-21T00:45:55.980Z,299
2018-10-21T00:46:08.383Z,317
2018-10-21T00:46:20.767Z,292
2018-10-21T00:46:33.183Z,309
2018-10-21T00:46:45.732Z,295
2018-10-21T00:46:58.103Z,300
2018-10-21T00:47:10.562Z,317
2018-10-21T00:47:23.085Z,306
2018-10-21T00:47:35.594Z,306
2018-10-21T00:47:47.978Z,298
2018-10-21T00:48:00.515Z,289
2018-10-21T00:48:12.915Z,300
2018-10-21T00:48:25.369Z,302
2018-10-21T00:48:37.936Z,323
2018-10-21T00:48:50.376Z,340
2018-10-21T00:49:02.993Z,334
2018-10-21T00:49:15.470Z,333
2018-10-21T00:49:27.931Z,324
2018-10-21T00:49:40.439Z,324
2018-10-21T00:49:52.887Z,308
2018-10-21T00:50:05.327Z,315
2018-10-21T00:50:17.725Z,315
2018-10-21T00:50:30.188Z,302
2018-10-21T00:50:42.686Z,302
2018-10-21T00:50:55.079Z,304
2018-10-21T00:51:08.145Z,310
2018-10-21T00:51:21.548Z,298
2018-10-21T00:51:33.945Z,297
2018-10-21T00:51:46.316Z,297
2018-10-21T00:51:58.696Z,297
2018-10-21T00:52:11.212Z,288
2018-10-21T00:52:23.625Z,286
2018-10-21T00:52:36.042Z,302
2018-10-21T00:52:48.517Z,302
2018-10-21T00:53:01.069Z,296
2018-10-21T00:53:13.448Z,294
2018-10-21T00:53:25.826Z,296
2018-10-21T00:53:38.232Z,295
2018-10-21T00:53:50.689Z,322
2018-10-21T00:54:03.293Z,272
2018-10-21T00:54:15.782Z,279
2018-10-21T00:54:28.148Z,305
2018-10-21T00:54:40.526Z,309
2018-10-21T00:54:52.939Z,303
2018-10-21T00:55:05.606Z,306
2018-10-21T00:55:18.076Z,297
2018-10-21T00:55:30.566Z,307
2018-10-21T00:55:42.948Z,296
2018-10-21T00:55:55.381Z,315
2018-10-21T00:56:07.838Z,317
2018-10-21T00:56:20.273Z,298
2018-10-21T00:56:32.671Z,318
2018-10-21T00:56:45.185Z,313
2018-10-21T00:56:57.920Z,294
2018-10-21T00:57:11.411Z,302
2018-10-21T00:57:24.894Z,302
2018-10-21T00:57:37.366Z,311
2018-10-21T00:57:49.823Z,278
2018-10-21T00:58:02.395Z,278
2018-10-21T00:58:14.855Z,280
2018-10-21T00:58:27.264Z,300
2018-10-21T00:58:39.723Z,300
2018-10-21T00:58:52.101Z,297
2018-10-21T00:59:04.594Z,298
2018-10-21T00:59:17.068Z,298
2018-10-21T00:59:29.468Z,298
2018-10-21T00:59:41.848Z,295
2018-10-21T00:59:54.240Z,296
2018-10-21T01:00:06.611Z,306
2018-10-21T01:00:18.992Z,307
2018-10-21T01:00:31.565Z,306
2018-10-21T01:00:43.964Z,292
2018-10-21T01:00:56.364Z,303
2018-10-21T01:01:08.795Z,319
2018-10-21T01:01:21.222Z,301
2018-10-21T01:01:33.648Z,306
2018-10-21T01:01:46.118Z,306
2018-10-21T01:01:58.494Z,306
2018-10-21T01:02:10.921Z,306
2018-10-21T01:02:23.313Z,288
2018-10-21T01:02:35.911Z,289
2018-10-21T01:02:48.295Z,294
2018-10-21T01:03:01.280Z,294
2018-10-21T01:03:14.813Z,290
2018-10-21T01:03:27.515Z,318
2018-10-21T01:03:39.893Z,327
2018-10-21T01:03:52.345Z,327
2018-10-21T01:04:05.157Z,310
2018-10-21T01:04:18.882Z,303
2018-10-21T01:04:31.266Z,303
2018-10-21T01:04:43.738Z,297
2018-10-21T01:04:56.125Z,298
2018-10-21T01:05:08.540Z,295
2018-10-21T01:05:20.947Z,295
2018-10-21T01:05:33.352Z,295
2018-10-21T01:05:45.744Z,322
2018-10-21T01:05:58.125Z,322
2018-10-21T01:06:10.519Z,302
2018-10-21T01:06:23.009Z,319
2018-10-21T01:06:35.383Z,306
2018-10-21T01:06:47.818Z,321
2018-10-21T01:07:00.218Z,304
2018-10-21T01:07:12.611Z,302
2018-10-21T01:07:25.264Z,302
2018-10-21T01:07:37.653Z,302
2018-10-21T01:07:50.055Z,302
2018-10-21T01:08:02.459Z,302
2018-10-21T01:08:14.832Z,309
2018-10-21T01:08:27.238Z,309
2018-10-21T01:08:40.045Z,310
2018-10-21T01:08:52.523Z,331
2018-10-21T01:09:05.716Z,333
2018-10-21T01:09:19.693Z,333
2018-10-21T01:09:32.206Z,333
2018-10-21T01:09:44.612Z,322
2018-10-21T01:09:57.009Z,304
2018-10-21T01:10:09.465Z,314
2018-10-21T01:10:21.880Z,313
2018-10-21T01:10:34.366Z,313
2018-10-21T01:10:46.750Z,304
2018-10-21T01:10:59.140Z,308
2018-10-21T01:11:11.664Z,306
2018-10-21T01:11:24.031Z,306
2018-10-21T01:11:36.407Z,306
2018-10-21T01:11:48.777Z,309
2018-10-21T01:12:01.160Z,320
2018-10-21T01:12:13.615Z,328
2018-10-21T01:12:25.996Z,328
2018-10-21T01:12:38.563Z,328
2018-10-21T01:12:50.972Z,328
2018-10-21T01:13:03.550Z,328
2018-10-21T01:13:15.923Z,328
2018-10-21T01:13:28.332Z,298
2018-10-21T01:13:40.755Z,298
2018-10-21T01:13:53.156Z,298
2018-10-21T01:14:05.547Z,298
2018-10-21T01:14:17.943Z,298
2018-10-21T01:14:30.347Z,298
2018-10-21T01:14:42.746Z,298
2018-10-21T01:14:55.216Z,298
2018-10-21T01:15:08.532Z,298
2018-10-21T01:15:22.392Z,298
2018-10-21T01:15:34.808Z,319
2018-10-21T01:15:47.190Z,318
2018-10-21T01:15:59.576Z,327
2018-10-21T01:16:11.957Z,327
2018-10-21T01:16:24.349Z,327
2018-10-21T01:16:36.746Z,327
2018-10-21T01:16:49.144Z,327
2018-10-21T01:17:01.527Z,327
2018-10-21T01:17:13.967Z,327
2018-10-21T01:17:26.403Z,327
2018-10-21T01:17:38.880Z,327
2018-10-21T01:17:51.300Z,327
2018-10-21T01:18:03.681Z,327
2018-10-21T01:18:16.075Z,327
2018-10-21T01:18:28.466Z,327
2018-10-21T01:18:40.856Z,327
2018-10-21T01:18:53.243Z,327
2018-10-21T01:19:05.691Z,327
2018-10-21T01:19:18.176Z,327
2018-10-21T01:19:30.629Z,327
2018-10-21T01:19:43.002Z,327
2018-10-21T01:19:55.373Z,327
2018-10-21T01:20:07.905Z,327
2018-10-21T01:20:20.373Z,327
2018-10-21T01:20:32.788Z,327
2018-10-21T01:20:45.193Z,327
2018-10-21T01:20:57.750Z,327
2018-10-21T01:21:10.976Z,311
2018-10-21T01:21:24.226Z,311
2018-10-21T01:21:36.655Z,311
2018-10-21T01:21:49.205Z,311
2018-10-21T01:22:01.602Z,311
2018-10-21T01:22:14.070Z,311
2018-10-21T01:22:26.585Z,311
2018-10-21T01:22:39.032Z,311
2018-10-21T01:22:51.437Z,311
2018-10-21T01:23:03.826Z,311
2018-10-21T01:23:16.217Z,311
2018-10-21T01:23:28.607Z,311
2018-10-21T01:23:41.011Z,313
2018-10-21T01:23:53.464Z,313
2018-10-21T01:24:05.834Z,313
2018-10-21T01:24:18.229Z,313
2018-10-21T01:24:30.622Z,313
2018-10-21T01:24:43.106Z,313
2018-10-21T01:24:55.516Z,313
2018-10-21T01:25:07.896Z,313
2018-10-21T01:25:20.279Z,313
2018-10-21T01:25:32.741Z,313
2018-10-21T01:25:45.242Z,313
2018-10-21T01:25:57.739Z,313
2018-10-21T01:26:10.113Z,313
2018-10-21T01:26:22.541Z,312
2018-10-21T01:26:34.917Z,312
2018-10-21T01:26:47.283Z,303
2018-10-21T01:26:59.948Z,296
2018-10-21T01:27:13.490Z,296
2018-10-21T01:27:26.593Z,304
2018-10-21T01:27:39.185Z,304
2018-10-21T01:27:51.656Z,304
2018-10-21T01:28:04.177Z,303
2018-10-21T01:28:16.619Z,303
2018-10-21T01:28:29.060Z,309
2018-10-21T01:28:41.468Z,309
2018-10-21T01:28:53.844Z,309
2018-10-21T01:29:06.287Z,309
2018-10-21T01:29:18.658Z,309
2018-10-21T01:29:31.043Z,309
2018-10-21T01:29:43.429Z,309
2018-10-21T01:29:55.866Z,309
2018-10-21T01:30:08.330Z,309
2018-10-21T01:30:20.790Z,309
2018-10-21T01:30:33.246Z,309
2018-10-21T01:30:45.655Z,294
2018-10-21T01:30:58.110Z,294
2018-10-21T01:31:10.572Z,294
2018-10-21T01:31:23.172Z,294
2018-10-21T01:31:35.618Z,298
2018-10-21T01:31:48.010Z,298
2018-10-21T01:32:00.385Z,298
2018-10-21T01:32:12.784Z,298
2018-10-21T01:32:25.221Z,298
2018-10-21T01:32:37.633Z,298
2018-10-21T01:32:50.047Z,298
2018-10-21T01:33:02.835Z,298
2018-10-21T01:33:16.715Z,298
2018-10-21T01:33:29.171Z,298
2018-10-21T01:33:41.597Z,298
2018-10-21T01:33:54.021Z,298
2018-10-21T01:34:06.428Z,299
2018-10-21T01:34:18.858Z,299
2018-10-21T01:34:31.385Z,299
2018-10-21T01:34:43.791Z,299
2018-10-21T01:34:56.173Z,299
2018-10-21T01:35:08.571Z,299
2018-10-21T01:35:20.993Z,299
2018-10-21T01:35:33.445Z,299
2018-10-21T01:35:45.815Z,299
2018-10-21T01:35:58.230Z,297
2018-10-21T01:36:11.170Z,298
2018-10-21T01:36:27.238Z,296
2018-10-21T01:36:43.085Z,297
2018-10-21T01:36:57.020Z,326
2018-10-21T01:37:10.704Z,317
2018-10-21T01:37:24.178Z,302
2018-10-21T01:37:37.174Z,300
2018-10-21T01:37:50.387Z,300
2018-10-21T01:38:04.054Z,302
2018-10-21T01:38:17.581Z,302
2018-10-21T01:38:30.884Z,302
2018-10-21T01:38:43.261Z,302
2018-10-21T01:38:55.747Z,302
2018-10-21T01:39:08.940Z,296
2018-10-21T01:39:22.255Z,296
2018-10-21T01:39:34.848Z,296
2018-10-21T01:39:47.249Z,301
2018-10-21T01:39:59.689Z,306
2018-10-21T01:40:12.118Z,292
2018-10-21T01:40:24.608Z,292
2018-10-21T01:40:37.017Z,295
2018-10-21T01:40:49.448Z,295
2018-10-21T01:41:01.967Z,295
2018-10-21T01:41:14.372Z,304
2018-10-21T01:41:26.768Z,299
2018-10-21T01:41:39.172Z,300
2018-10-21T01:41:51.690Z,299
2018-10-21T01:42:04.085Z,306
2018-10-21T01:42:16.479Z,305
2018-10-21T01:42:28.867Z,305
2018-10-21T01:42:41.247Z,304
2018-10-21T01:42:53.631Z,304
2018-10-21T01:43:06.189Z,304
2018-10-21T01:43:18.622Z,304
2018-10-21T01:43:31.048Z,296
2018-10-21T01:43:43.455Z,296
2018-10-21T01:43:55.822Z,296
2018-10-21T01:44:08.203Z,296
2018-10-21T01:44:20.609Z,296
2018-10-21T01:44:32.985Z,296
2018-10-21T01:44:45.369Z,300
2018-10-21T01:44:57.936Z,302
2018-10-21T01:45:11.535Z,298
2018-10-21T01:45:24.574Z,298
2018-10-21T01:45:36.998Z,298
2018-10-21T01:45:49.390Z,298
2018-10-21T01:46:01.776Z,298
2018-10-21T01:46:14.225Z,298
2018-10-21T01:46:26.606Z,298
2018-10-21T01:46:38.989Z,319
2018-10-21T01:46:51.533Z,314
2018-10-21T01:47:03.905Z,319
2018-10-21T01:47:16.407Z,293
2018-10-21T01:47:29.314Z,305
2018-10-21T01:47:42.166Z,301
2018-10-21T01:47:54.542Z,301
2018-10-21T01:48:07.291Z,301
2018-10-21T01:48:19.660Z,301
2018-10-21T01:48:32.072Z,297
2018-10-21T01:48:44.475Z,300
2018-10-21T01:48:56.888Z,289
2018-10-21T01:49:09.490Z,303
2018-10-21T01:49:21.889Z,303
2018-10-21T01:49:34.339Z,296
2018-10-21T01:49:46.840Z,296
2018-10-21T01:49:59.251Z,297
2018-10-21T01:50:11.644Z,297
2018-10-21T01:50:24.117Z,297
2018-10-21T01:50:36.527Z,297
2018-10-21T01:50:48.925Z,316
2018-10-21T01:51:01.789Z,316
2018-10-21T01:51:15.730Z,316
2018-10-21T01:51:28.792Z,316
2018-10-21T01:51:41.160Z,316
2018-10-21T01:51:53.543Z,316
2018-10-21T01:52:06.011Z,316
2018-10-21T01:52:18.392Z,316
2018-10-21T01:52:31.377Z,316
2018-10-21T01:52:43.826Z,316
2018-10-21T01:52:56.224Z,316
2018-10-21T01:53:08.738Z,316
2018-10-21T01:53:21.129Z,316
2018-10-21T01:53:33.528Z,316
2018-10-21T01:53:45.919Z,317
2018-10-21T01:53:58.311Z,310
2018-10-21T01:54:10.847Z,310
2018-10-21T01:54:23.250Z,310
2018-10-21T01:54:35.737Z,310
2018-10-21T01:54:48.099Z,310
2018-10-21T01:55:00.476Z,310
2018-10-21T01:55:12.869Z,310
2018-10-21T01:55:25.263Z,310
2018-10-21T01:55:37.636Z,310
2018-10-21T01:55:50.036Z,310
2018-10-21T01:56:02.453Z,310
2018-10-21T01:56:14.833Z,310
2018-10-21T01:56:27.223Z,310
2018-10-21T01:56:39.634Z,310
2018-10-21T01:56:52.008Z,310
2018-10-21T01:57:05.011Z,310
2018-10-21T01:57:18.890Z,310
2018-10-21T01:57:31.412Z,310
2018-10-21T01:57:43.878Z,310
2018-10-21T01:57:56.413Z,310
2018-10-21T01:58:08.808Z,310
2018-10-21T01:58:21.206Z,310
2018-10-21T01:58:33.729Z,310
2018-10-21T01:58:46.147Z,310
2018-10-21T01:58:58.535Z,310
2018-10-21T01:59:10.932Z,310
2018-10-21T01:59:23.425Z,310
2018-10-21T01:59:35.815Z,310
2018-10-21T01:59:48.189Z,310
2018-10-21T02:00:00.568Z,310
2018-10-21T02:00:12.970Z,310
2018-10-21T02:00:25.383Z,310
2018-10-21T02:00:37.980Z,310
2018-10-21T02:00:50.476Z,310
2018-10-21T02:01:02.888Z,310
2018-10-21T02:01:15.314Z,310
2018-10-21T02:01:27.748Z,310
2018-10-21T02:01:40.246Z,310
2018-10-21T02:01:52.648Z,310
2018-10-21T02:02:05.050Z,310
2018-10-21T02:02:17.459Z,310
2018-10-21T02:02:29.845Z,310
2018-10-21T02:02:42.233Z,310
2018-10-21T02:02:54.789Z,310
2018-10-21T02:03:07.939Z,310
2018-10-21T02:03:22.047Z,310
2018-10-21T02:03:34.441Z,310
2018-10-21T02:03:46.833Z,310
2018-10-21T02:03:59.233Z,310
2018-10-21T02:04:11.734Z,310
2018-10-21T02:04:24.132Z,310
2018-10-21T02:04:36.542Z,310
2018-10-21T02:04:48.909Z,310
2018-10-21T02:05:01.291Z,310
2018-10-21T02:05:13.697Z,310
2018-10-21T02:05:26.191Z,310
2018-10-21T02:05:38.595Z,310
2018-10-21T02:05:50.996Z,310
2018-10-21T02:06:03.384Z,310
2018-10-21T02:06:15.945Z,310
2018-10-21T02:06:28.342Z,310
2018-10-21T02:06:40.747Z,310
2018-10-21T02:06:53.147Z,310
2018-10-21T02:07:05.536Z,310
2018-10-21T02:07:17.932Z,310
2018-10-21T02:07:30.324Z,310
2018-10-21T02:07:42.739Z,310
2018-10-21T02:07:55.176Z,310
2018-10-21T02:08:07.585Z,310
2018-10-21T02:08:19.979Z,310
2018-10-21T02:08:32.393Z,310
2018-10-21T02:08:44.818Z,310
2018-10-21T02:08:57.358Z,310
2018-10-21T02:09:10.894Z,310
2018-10-21T02:09:24.187Z,310
2018-10-21T02:09:36.580Z,310
2018-10-21T02:09:48.958Z,310
2018-10-21T02:10:01.389Z,310
2018-10-21T02:10:13.774Z,310
2018-10-21T02:10:26.188Z,310
2018-10-21T02:10:38.597Z,310
2018-10-21T02:10:51.063Z,310
2018-10-21T02:11:03.459Z,310
2018-10-21T02:11:16.012Z,310
2018-10-21T02:11:28.409Z,310
2018-10-21T02:11:40.861Z,310
2018-10-21T02:11:53.250Z,310
2018-10-21T02:12:05.639Z,310
2018-10-21T02:12:18.020Z,310
2018-10-21T02:12:30.408Z,310
2018-10-21T02:12:42.852Z,310
2018-10-21T02:12:55.230Z,310
2018-10-21T02:13:07.837Z,310
2018-10-21T02:13:20.503Z,310
2018-10-21T02:13:32.900Z,310
2018-10-21T02:13:45.318Z,310
2018-10-21T02:13:57.693Z,310
2018-10-21T02:14:10.561Z,310
2018-10-21T02:14:23.789Z,310
2018-10-21T02:14:36.214Z,310
2018-10-21T02:14:48.611Z,310
2018-10-21T02:15:01.440Z,310
2018-10-21T02:15:15.336Z,310
2018-10-21T02:15:27.911Z,310
2018-10-21T02:15:40.350Z,310
2018-10-21T02:15:52.722Z,310
2018-10-21T02:16:05.114Z,310
2018-10-21T02:16:17.489Z,310
2018-10-21T02:16:29.878Z,310
2018-10-21T02:16:42.261Z,310
2018-10-21T02:16:54.648Z,310
2018-10-21T02:17:07.051Z,310
2018-10-21T02:17:19.435Z,310
2018-10-21T02:17:31.827Z,310
2018-10-21T02:17:44.315Z,310
2018-10-21T02:17:56.698Z,310
2018-10-21T02:18:09.121Z,310
2018-10-21T02:18:21.507Z,310
2018-10-21T02:18:34.175Z,310
2018-10-21T02:18:46.741Z,310
2018-10-21T02:18:59.133Z,310
2018-10-21T02:19:11.546Z,310
2018-10-21T02:19:24.054Z,310
2018-10-21T02:19:36.418Z,310
2018-10-21T02:19:48.793Z,310
2018-10-21T02:20:01.174Z,310
2018-10-21T02:20:13.545Z,310
2018-10-21T02:20:26.079Z,310
2018-10-21T02:20:38.475Z,310
2018-10-21T02:20:50.875Z,310
2018-10-21T02:21:03.843Z,310
2018-10-21T02:21:17.960Z,310
2018-10-21T02:21:30.447Z,310
2018-10-21T02:21:42.831Z,310
2018-10-21T02:21:55.308Z,310
2018-10-21T02:22:07.818Z,310
2018-10-21T02:22:20.196Z,310
2018-10-21T02:22:32.757Z,310
2018-10-21T02:22:45.178Z,310
2018-10-21T02:22:57.588Z,310
2018-10-21T02:23:09.980Z,310
2018-10-21T02:23:22.391Z,310
2018-10-21T02:23:34.787Z,310
2018-10-21T02:23:47.181Z,310
2018-10-21T02:23:59.587Z,310
2018-10-21T02:24:11.970Z,310
2018-10-21T02:24:24.373Z,310
2018-10-21T02:24:36.969Z,299
2018-10-21T02:24:49.362Z,287
2018-10-21T02:25:01.747Z,288
2018-10-21T02:25:14.159Z,288
2018-10-21T02:25:26.557Z,288
2018-10-21T02:25:38.996Z,288
2018-10-21T02:25:51.520Z,288
2018-10-21T02:26:03.922Z,288
2018-10-21T02:26:16.745Z,288
2018-10-21T02:26:30.824Z,288
2018-10-21T02:26:44.105Z,288
2018-10-21T02:26:57.942Z,288
2018-10-21T02:27:11.351Z,288
2018-10-21T02:27:24.823Z,288
2018-10-21T02:27:37.212Z,288
2018-10-21T02:27:49.599Z,288
2018-10-21T02:28:02.003Z,288
2018-10-21T02:28:14.875Z,288
2018-10-21T02:28:27.392Z,288
2018-10-21T02:28:39.789Z,288
2018-10-21T02:28:52.207Z,288
2018-10-21T02:29:04.586Z,288
2018-10-21T02:29:16.966Z,288
2018-10-21T02:29:29.354Z,288
2018-10-21T02:29:41.765Z,288
2018-10-21T02:29:54.185Z,288
2018-10-21T02:30:06.601Z,288
2018-10-21T02:30:19.025Z,288
2018-10-21T02:30:31.505Z,288
2018-10-21T02:30:43.965Z,288
2018-10-21T02:30:56.376Z,288
2018-10-21T02:31:08.837Z,288
2018-10-21T02:31:21.594Z,288
2018-10-21T02:31:33.990Z,288
2018-10-21T02:31:46.371Z,288
2018-10-21T02:31:58.798Z,288
2018-10-21T02:32:11.205Z,288
2018-10-21T02:32:23.623Z,288
2018-10-21T02:32:36.007Z,288
2018-10-21T02:32:48.431Z,288
2018-10-21T02:33:01.505Z,288
2018-10-21T02:33:15.606Z,288
2018-10-21T02:33:30.046Z,288
2018-10-21T02:33:45.411Z,288
2018-10-21T02:33:58.119Z,288
2018-10-21T02:34:10.546Z,288
2018-10-21T02:34:22.942Z,288
2018-10-21T02:34:35.342Z,288
2018-10-21T02:34:48.025Z,288
2018-10-21T02:35:00.420Z,288
2018-10-21T02:35:12.840Z,288
2018-10-21T02:35:25.259Z,288
2018-10-21T02:35:37.671Z,288
2018-10-21T02:35:50.083Z,288
2018-10-21T02:36:02.500Z,288
2018-10-21T02:36:14.906Z,288
2018-10-21T02:36:27.328Z,288
2018-10-21T02:36:39.741Z,288
2018-10-21T02:36:52.142Z,288
2018-10-21T02:37:04.547Z,288
2018-10-21T02:37:16.947Z,288
2018-10-21T02:37:29.363Z,288
2018-10-21T02:37:41.751Z,288
2018-10-21T02:37:54.176Z,288
2018-10-21T02:38:06.583Z,288
2018-10-21T02:38:19.040Z,288
2018-10-21T02:38:31.442Z,288
2018-10-21T02:38:43.840Z,288
2018-10-21T02:38:56.313Z,288
2018-10-21T02:39:09.887Z,288
2018-10-21T02:39:23.685Z,288
2018-10-21T02:39:36.207Z,288
2018-10-21T02:39:48.627Z,294
2018-10-21T02:40:01.071Z,294
2018-10-21T02:40:13.497Z,294
2018-10-21T02:40:26.038Z,294
2018-10-21T02:40:38.598Z,294
2018-10-21T02:40:51.013Z,294
2018-10-21T02:41:03.437Z,294
2018-10-21T02:41:15.903Z,294
2018-10-21T02:41:28.295Z,294
2018-10-21T02:41:40.713Z,294
2018-10-21T02:41:53.130Z,294
2018-10-21T02:42:05.555Z,294
2018-10-21T02:42:18.084Z,294
2018-10-21T02:42:30.586Z,296
2018-10-21T02:42:42.993Z,296
2018-10-21T02:42:55.444Z,296
2018-10-21T02:43:07.857Z,296
2018-10-21T02:43:20.253Z,296
2018-10-21T02:43:32.674Z,296
2018-10-21T02:43:45.051Z,296
2018-10-21T02:43:57.484Z,296
2018-10-21T02:44:09.905Z,296
2018-10-21T02:44:22.363Z,296
2018-10-21T02:44:34.782Z,295
2018-10-21T02:44:47.230Z,296
2018-10-21T02:44:59.858Z,295
2018-10-21T02:45:13.367Z,296
2018-10-21T02:45:26.759Z,296
2018-10-21T02:45:39.178Z,296
2018-10-21T02:45:51.551Z,296
2018-10-21T02:46:03.964Z,296
2018-10-21T02:46:16.367Z,296
2018-10-21T02:46:28.761Z,296
2018-10-21T02:46:41.191Z,296
2018-10-21T02:46:53.618Z,296
2018-10-21T02:47:06.021Z,296
2018-10-21T02:47:18.520Z,296
2018-10-21T02:47:31.125Z,296
2018-10-21T02:47:43.518Z,296
2018-10-21T02:47:55.918Z,296
2018-10-21T02:48:08.325Z,296
2018-10-21T02:48:20.729Z,296
2018-10-21T02:48:33.127Z,296
2018-10-21T02:48:45.540Z,296
2018-10-21T02:48:57.944Z,296
2018-10-21T02:49:10.376Z,296
2018-10-21T02:49:22.798Z,296
2018-10-21T02:49:35.320Z,296
2018-10-21T02:49:47.727Z,296
2018-10-21T02:50:00.222Z,296
2018-10-21T02:50:12.635Z,296
2018-10-21T02:50:25.054Z,296
2018-10-21T02:50:37.433Z,296
2018-10-21T02:50:49.818Z,296
2018-10-21T02:51:02.707Z,296
2018-10-21T02:51:16.687Z,296
2018-10-21T02:51:29.591Z,296
2018-10-21T02:51:42.051Z,296
2018-10-21T02:51:54.458Z,296
2018-10-21T02:52:07.221Z,296
2018-10-21T02:52:19.698Z,296
2018-10-21T02:52:32.106Z,296
2018-10-21T02:52:44.519Z,296
2018-10-21T02:52:56.907Z,296